Latest Weather Observations for Cessnock Airport

IDN60801

Issued at 1:06 pm EDT Monday 26 January 2015 (issued every 30 minutes, with the page automatically refreshed every 10 minutes)

About weather observations | Map of weather stations | Latest weather observations for NSW | Other Formats
Station Details ID: 061260 Name: CESSNOCK AIRPORT AWS Lat: -32.79 Lon: 151.34 Height: 61.0 m
Data from the previous 72 hours. | See also: Recent months at Cessnock Airport
Date/Time
EDT
Temp
°C
App
Temp
°C
Dew
Point
Rel
Hum
%
Delta-T
°C
Wind Press
QNH
hPa
Press
MSL
hPa
Rain
since 9 am
mm
Dir
 
Spd
km/h
Gust
km/h
Spd
kts
Gust
kts
26/01:00pm 21.3 22.1 20.6 96 0.5 SSE 17 24 9 13 1011.8 1011.5 0.6
26/12:30pm 21.0 21.8 20.7 98 0.2 SE 17 24 9 13 1012.1 1011.8 0.4
26/12:00pm 20.8 22.0 20.6 99 0.1 SSE 15 20 8 11 1012.3 1012.0 0.2
26/11:30am 21.1 22.5 20.3 95 0.5 SE 13 19 7 10 1012.2 1011.9 0.0
26/11:00am 21.2 21.8 20.2 94 0.6 SE 17 26 9 14 1012.1 1011.8 0.0
26/10:30am 21.4 20.9 18.6 84 1.8 SE 19 30 10 16 1012.2 1011.9 0.0
26/10:00am 22.0 21.1 17.8 77 2.6 SE 19 26 10 14 1012.2 1011.9 0.0
26/09:30am 22.2 21.1 17.3 74 3.0 SE 19 24 10 13 1011.7 1011.4 0.0
26/09:00am 22.6 21.6 17.5 73 3.2 S 19 28 10 15 1011.2 1010.9 0.0
26/08:30am 22.2 21.5 17.3 74 3.0 S 17 26 9 14 1011.3 1011.0 0.0
26/08:00am 22.2 21.3 16.9 72 3.3 S 17 24 9 13 1011.0 1010.7 0.0
26/07:30am 22.3 21.3 16.6 70 3.5 S 17 26 9 14 1010.7 1010.4 0.0
26/07:00am 22.2 20.6 16.5 70 3.5 S 20 28 11 15 1010.4 1010.1 0.0
26/06:30am 22.3 20.9 16.6 70 3.5 S 19 30 10 16 1009.9 1009.6 0.0
26/06:00am 22.5 21.8 16.3 68 3.8 S 15 20 8 11 1009.6 1009.3 0.0
26/05:30am 22.6 21.7 15.9 66 4.0 S 15 20 8 11 1009.1 1008.8 0.0
26/05:00am 22.6 21.9 16.4 68 3.8 S 15 20 8 11 1008.9 1008.6 0.0
26/04:30am 22.8 21.7 17.3 71 3.4 S 19 28 10 15 1008.8 1008.5 0.0
26/04:00am 22.8 22.6 17.5 72 3.3 S 15 26 8 14 1008.5 1008.2 0.0
26/03:30am 22.9 22.3 17.6 72 3.3 S 17 24 9 13 1008.7 1008.4 0.0
26/03:00am 23.1 22.6 17.8 72 3.3 S 17 26 9 14 1008.5 1008.2 0.0
26/02:30am 23.1 22.7 18.0 73 3.2 S 17 24 9 13 1008.1 1007.8 0.0
26/02:00am 23.1 22.3 18.0 73 3.2 S 19 28 10 15 1008.1 1007.8 0.0
26/01:30am 23.5 22.2 18.2 72 3.3 S 22 33 12 18 1008.0 1007.7 0.0
26/01:00am 23.7 22.6 18.6 73 3.2 S 22 30 12 16 1008.1 1007.8 0.0
26/12:30am 24.2 24.3 19.1 73 3.3 S 17 24 9 13 1008.4 1008.1 0.0
26/12:00am 24.5 23.6 19.1 72 3.5 S 22 30 12 16 1008.1 1007.8 0.0
 
Date/Time
EDT
Temp
°C
App
Temp
°C
Dew
Point
Rel
Hum
%
Delta-T
°C
Wind Press
QNH
hPa
Press
MSL
hPa
Rain
since 9 am
mm
Dir
 
Spd
km/h
Gust
km/h
Spd
kts
Gust
kts
25/11:30pm 24.5 24.0 18.7 70 3.7 S 19 30 10 16 1007.9 1007.6 0.0
25/11:00pm 25.1 24.2 18.3 66 4.3 SSE 20 28 11 15 1007.3 1007.0 0.0
25/10:30pm 26.1 24.2 17.7 60 5.3 SSE 24 33 13 18 1006.4 1006.1 0.0
25/10:00pm 27.2 25.6 17.4 55 6.2 S 22 32 12 17 1005.5 1005.3 0.0
25/09:30pm 28.3 28.7 19.0 57 6.0 SSE 15 20 8 11 1004.5 1004.3 0.0
25/09:00pm 28.7 29.5 19.1 56 6.2 S 13 19 7 10 1003.7 1003.5 0.0
25/08:30pm 29.4 30.9 19.7 56 6.4 SE 11 13 6 7 1003.1 1002.8 0.0
25/08:00pm 30.9 31.5 18.6 48 8.0 SE 13 15 7 8 1002.6 1002.3 0.0
25/07:30pm 32.2 32.5 16.1 38 10.1 NW 9 11 5 6 1002.1 1001.8 0.0
25/07:00pm 33.6 33.4 15.6 34 11.3 NNW 11 17 6 9 1001.8 1001.5 0.0
25/06:30pm 34.0 34.6 17.7 38 10.5 NNW 11 15 6 8 1001.4 1001.1 0.0
25/06:00pm 34.0 33.1 15.9 33 11.4 NNW 15 24 8 13 1001.2 1000.9 0.0
25/05:30pm 34.1 33.4 17.3 36 10.8 NW 17 26 9 14 1001.1 1000.8 0.0
25/05:00pm 34.5 34.0 17.7 37 10.9 NW 17 26 9 14 1001.1 1000.8 0.0
25/04:30pm 33.9 33.8 18.8 41 9.9 NNW 17 26 9 14 1001.3 1001.0 0.0
25/04:00pm 33.6 33.0 18.5 40 9.9 NNW 19 28 10 15 1001.4 1001.1 0.0
25/03:30pm 33.4 34.7 20.2 46 8.8 NNW 13 24 7 13 1001.7 1001.4 0.0
25/03:00pm 32.8 32.8 18.2 42 9.5 NNW 15 22 8 12 1001.9 1001.6 0.0
25/02:30pm 32.4 32.4 18.9 44 8.8 NNW 17 26 9 14 1002.0 1001.7 0.0
25/02:00pm 32.1 31.6 18.7 45 8.8 NNW 19 32 10 17 1002.2 1001.9 0.0
25/01:30pm 31.8 32.3 20.1 50 7.8 NNW 17 26 9 14 1002.4 1002.1 0.0
25/01:00pm 30.9 30.9 18.9 48 7.8 NNW 17 26 9 14 1002.7 1002.4 0.0
25/12:30pm 30.3 30.5 19.3 51 7.2 N 17 26 9 14 1002.9 1002.6 0.0
25/12:00pm 29.7 29.4 19.1 53 6.9 NNW 19 26 10 14 1003.1 1002.8 0.0
25/11:30am 29.4 29.6 18.5 52 7.0 NNW 15 22 8 12 1003.2 1002.9 0.0
25/11:00am 29.2 29.9 20.4 59 5.8 NW 17 26 9 14 1003.2 1002.9 0.0
25/10:30am 27.9 28.1 19.4 60 5.5 NNW 17 22 9 12 1003.3 1003.0 0.0
25/10:00am 26.5 27.6 19.6 66 4.5 NNW 13 20 7 11 1003.4 1003.1 0.0
25/09:30am 25.6 27.0 20.4 73 3.4 NNW 13 20 7 11 1003.6 1003.4 0.0
25/09:00am 24.9 26.0 19.7 73 3.4 N 13 20 7 11 1003.7 1003.5 18.0
25/08:30am 22.6 26.1 21.8 95 0.5 NNW 6 9 3 5 1003.9 1003.7 18.0
25/08:00am 21.1 25.3 20.9 99 0.1 CALM 0 0 0 0 1003.9 1003.7 18.0
25/07:30am 20.8 24.8 20.6 99 0.1 CALM 0 0 0 0 1003.6 1003.4 18.0
25/07:00am 20.6 24.5 20.4 99 0.1 CALM 0 0 0 0 1003.4 1003.1 18.0
25/06:30am 20.3 24.2 20.3 100 0.0 CALM 0 0 0 0 1003.0 1002.7 18.0
25/06:00am 20.2 22.9 20.2 100 0.0 SE 6 7 3 4 1002.7 1002.4 18.0
25/05:30am 19.9 23.6 19.9 100 0.0 CALM 0 0 0 0 1002.6 1002.3 18.0
25/05:00am 20.0 23.3 20.0 100 0.0 WNW 2 6 1 3 1002.4 1002.1 18.0
25/04:30am 20.5 22.7 20.3 99 0.1 N 9 13 5 7 1002.4 1002.1 18.0
25/04:00am 20.5 24.4 20.3 99 0.1 CALM 0 0 0 0 1002.4 1002.1 18.0
25/03:30am 20.7 23.4 20.7 100 0.0 N 7 9 4 5 1002.6 1002.3 17.0
25/03:00am 20.7 23.0 20.7 100 0.0 N 9 13 5 7 1002.9 1002.6 15.6
25/02:30am 20.9 23.0 20.9 100 0.0 NNW 11 17 6 9 1003.0 1002.7 14.0
25/02:00am 21.1 23.3 21.1 100 0.0 NNW 11 17 6 9 1003.9 1003.7 12.2
25/01:30am 21.0 22.0 21.0 100 0.0 NNW 17 24 9 13 1004.6 1004.4 10.0
25/01:00am 21.1 22.9 21.1 100 0.0 N 13 19 7 10 1005.8 1005.5 7.4
25/12:30am 21.2 23.0 21.2 100 0.0 W 13 17 7 9 1005.9 1005.6 4.4
25/12:00am 21.0 23.0 20.7 98 0.2 NNW 11 15 6 8 1007.0 1006.7 1.6
 
Date/Time
EDT
Temp
°C
App
Temp
°C
Dew
Point
Rel
Hum
%
Delta-T
°C
Wind Press
QNH
hPa
Press
MSL
hPa
Rain
since 9 am
mm
Dir
 
Spd
km/h
Gust
km/h
Spd
kts
Gust
kts
24/11:30pm 22.8 23.7 19.2 80 2.3 WNW 13 19 7 10 1007.0 1006.7 0.2
24/11:00pm 24.0 24.7 18.9 73 3.3 W 13 24 7 13 1006.5 1006.2 0.0
24/10:30pm 25.0 26.5 18.9 69 3.9 S 9 13 5 7 1005.9 1005.6 0.0
24/10:00pm 24.9 25.9 18.6 68 4.0 S 11 15 6 8 1005.9 1005.6 0.0
24/09:30pm 25.3 25.9 18.7 67 4.2 S 13 17 7 9 1005.1 1004.9 0.0
24/09:00pm 24.9 25.7 18.1 66 4.3 S 11 15 6 8 1004.6 1004.4 0.0
24/08:30pm 26.0 26.2 17.6 60 5.3 SE 13 17 7 9 1004.1 1003.9 0.0
24/08:00pm 26.2 26.6 17.3 58 5.6 SSE 11 17 6 9 1003.6 1003.4 0.0
24/07:30pm 27.4 27.6 17.6 55 6.2 ESE 13 17 7 9 1003.1 1002.8 0.0
24/07:00pm 28.3 27.8 17.8 53 6.7 ESE 17 22 9 12 1002.9 1002.6 0.0
24/06:30pm 29.5 28.2 17.3 47 7.7 ENE 20 26 11 14 1002.3 1002.0 0.0
24/06:00pm 30.4 29.3 17.8 46 8.1 E 20 28 11 15 1002.3 1002.0 0.0
24/05:30pm 30.9 30.4 18.6 48 8.0 E 19 28 10 15 1002.4 1002.1 0.0
24/05:00pm 31.6 31.4 18.6 46 8.5 E 17 28 9 15 1002.6 1002.3 0.0
24/04:30pm 31.5 30.4 17.4 43 9.0 E 19 24 10 13 1003.0 1002.7 0.0
24/04:00pm 31.7 31.2 17.9 43 8.9 E 17 24 9 13 1003.2 1002.9 0.0
24/03:30pm 31.5 31.7 18.5 46 8.4 E 15 22 8 12 1003.8 1003.6 0.0
24/03:00pm 32.0 32.1 17.5 42 9.3 E 13 24 7 13 1004.4 1004.2 0.0
24/02:30pm 31.4 31.4 16.2 40 9.5 NE 11 15 6 8 1004.6 1004.4 0.0
24/02:00pm 31.1 31.7 17.8 45 8.5 ENE 11 19 6 10 1005.0 1004.8 0.0
24/01:30pm 30.7 32.3 19.1 50 7.6 ENE 9 20 5 11 1005.4 1005.2 0.0
24/01:00pm 29.9 30.4 18.3 49 7.5 NE 13 17 7 9 1005.9 1005.6 0.0
24/12:30pm 29.8 31.8 17.9 48 7.6 ENE 4 11 2 6 1006.3 1006.0 0.0
24/12:00pm 29.6 31.0 18.7 52 7.1 ESE 9 15 5 8 1006.7 1006.4 0.0
24/11:30am 29.0 31.4 19.6 57 6.1 E 6 9 3 5 1007.0 1006.7 0.0
24/11:00am 28.0 30.1 19.0 58 5.8 E 6 9 3 5 1007.2 1006.9 0.0
24/10:30am 27.2 30.2 19.3 62 5.1 NNE 2 7 1 4 1007.4 1007.1 0.0
24/10:00am 26.3 28.4 18.9 63 4.8 E 6 9 3 5 1007.7 1007.4 0.0
24/09:30am 25.5 27.7 18.4 65 4.5 SE 4 7 2 4 1007.9 1007.6 0.0
24/09:00am 24.9 27.4 19.0 69 3.8 SSE 4 9 2 5 1007.9 1007.6 1.0
24/08:30am 24.3 26.3 19.1 73 3.3 ESE 7 13 4 7 1007.8 1007.5 1.0
24/08:00am 23.1 25.3 19.5 80 2.3 SE 7 11 4 6 1007.4 1007.1 1.0
24/07:30am 22.4 24.8 20.1 87 1.5 SSE 7 11 4 6 1007.4 1007.1 1.0
24/07:00am 21.5 25.3 21.0 97 0.3 SSE 2 9 1 5 1007.3 1007.0 1.0
24/06:30am 20.4 22.9 20.2 99 0.1 SSW 7 9 4 5 1007.0 1006.7 1.0
24/06:00am 20.1 22.1 19.9 99 0.1 SSW 9 11 5 6 1006.6 1006.3 1.0
24/05:30am 20.1 22.5 19.6 97 0.3 SSW 6 7 3 4 1006.6 1006.3 1.0
24/05:00am 20.5 23.0 19.8 96 0.4 SSE 6 7 3 4 1006.5 1006.2 1.0
24/04:30am 21.0 23.5 20.3 96 0.5 S 7 7 4 4 1006.3 1006.0 1.0
24/04:00am 21.1 23.6 20.3 95 0.5 SSW 7 9 4 5 1006.2 1005.9 1.0
24/03:30am 21.3 23.8 20.3 94 0.6 S 7 9 4 5 1006.2 1005.9 1.0
24/03:00am 21.6 23.8 20.4 93 0.8 SSE 9 11 5 6 1006.4 1006.1 1.0
24/02:30am 21.8 24.3 19.9 89 1.2 SSE 6 9 3 5 1006.4 1006.1 1.0
24/02:00am 22.1 24.3 19.6 86 1.6 SSE 7 11 4 6 1006.8 1006.5 1.0
24/01:30am 22.8 25.0 20.3 86 1.6 SSE 9 11 5 6 1007.0 1006.7 1.0
24/01:00am 23.1 25.6 20.2 84 1.9 SSE 7 11 4 6 1007.1 1006.8 1.0
24/12:30am 23.1 25.3 19.7 81 2.2 S 7 11 4 6 1007.1 1006.8 1.0
24/12:00am 23.7 26.2 19.8 79 2.5 ESE 6 9 3 5 1007.0 1006.7 1.0
 
Date/Time
EDT
Temp
°C
App
Temp
°C
Dew
Point
Rel
Hum
%
Delta-T
°C
Wind Press
QNH
hPa
Press
MSL
hPa
Rain
since 9 am
mm
Dir
 
Spd
km/h
Gust
km/h
Spd
kts
Gust
kts
23/11:30pm 23.4 25.9 19.8 80 2.3 SSE 6 9 3 5 1007.1 1006.8 1.0
23/11:00pm 23.6 25.8 19.3 77 2.8 SE 6 7 3 4 1007.2 1006.9 1.0
23/10:30pm 24.5 27.1 20.0 76 2.9 ESE 6 9 3 5 1007.1 1006.8 1.0
23/10:00pm 24.9 27.6 20.2 75 3.1 ESE 6 9 3 5 1006.9 1006.6 1.0
23/09:30pm 25.3 27.8 20.3 74 3.3 ESE 7 9 4 5 1006.7 1006.4 1.0
23/09:00pm 25.1 28.0 19.9 73 3.4 E 4 7 2 4 1006.4 1006.1 1.0
23/08:30pm 26.0 29.7 19.9 69 4.0 CALM 0 0 0 0 1006.3 1006.0 1.0
23/08:00pm 26.8 29.6 20.4 68 4.2 ENE 6 11 3 6 1006.2 1005.9 1.0
23/07:30pm 27.8 30.1 19.8 61 5.2 NNW 7 13 4 7 1005.9 1005.6 1.0
23/07:00pm 28.8 30.5 19.4 56 6.1 N 9 13 5 7 1005.4 1005.2 1.0
23/06:30pm 28.7 29.8 20.4 60 5.5 NNE 15 20 8 11 1004.9 1004.7 0.6
23/06:00pm 28.3 28.5 20.1 61 5.4 NE 19 24 10 13 1004.9 1004.7 0.2
23/05:30pm 30.8 30.7 17.8 45 8.3 ENE 15 20 8 11 1005.0 1004.8 0.0
23/05:00pm 30.5 29.3 17.6 46 8.3 NE 20 26 11 14 1005.3 1005.1 0.0
23/04:30pm 31.6 31.6 17.1 41 9.2 NE 13 20 7 11 1005.4 1005.2 0.0
23/04:00pm 31.8 32.4 16.9 40 9.5 ENE 9 20 5 11 1005.8 1005.5 0.0
23/03:30pm 31.6 32.7 17.1 41 9.2 SE 7 17 4 9 1006.1 1005.8 0.0
23/03:00pm 31.5 32.0 16.6 40 9.4 E 9 19 5 10 1006.5 1006.2 0.0
23/02:30pm 30.7 32.0 18.4 47 7.9 ESE 9 17 5 9 1006.9 1006.6 0.0
23/02:00pm 30.1 32.6 18.2 49 7.7 E 2 7 1 4 1007.3 1007.0 0.0
23/01:30pm 30.0 31.6 19.1 52 7.1 NE 9 20 5 11 1007.6 1007.3 0.0

Other Formats:

Comma delimited format used in spreadsheet applications
http://www.bom.gov.au/fwo/IDN60801/IDN60801.95771.axf

JavaScript Object Notation format (JSON) in row-major order
http://www.bom.gov.au/fwo/IDN60801/IDN60801.95771.json